createdAt,value
2023-03-05T00:00:42.703Z,3.63
2023-03-05T00:01:42.690Z,3.63
2023-03-05T00:02:42.780Z,3.55
2023-03-05T00:03:42.695Z,3.52
2023-03-05T00:04:42.650Z,3.60
2023-03-05T00:05:42.623Z,3.69
2023-03-05T00:06:42.623Z,3.66
2023-03-05T00:07:42.634Z,3.63
2023-03-05T00:08:42.592Z,3.63
2023-03-05T00:09:42.592Z,3.64
2023-03-05T00:10:42.569Z,3.69
2023-03-05T00:11:42.565Z,3.56
2023-03-05T00:12:42.640Z,3.62
2023-03-05T00:13:42.533Z,3.60
2023-03-05T00:14:42.519Z,3.67
2023-03-05T00:15:42.544Z,3.62
2023-03-05T00:16:42.485Z,3.62
2023-03-05T00:17:42.493Z,3.64
2023-03-05T00:18:42.455Z,3.63
2023-03-05T00:19:42.451Z,3.60
2023-03-05T00:20:42.436Z,3.62
2023-03-05T00:21:42.424Z,3.62
2023-03-05T00:22:42.432Z,3.62
2023-03-05T00:23:42.454Z,3.55
2023-03-05T00:24:42.382Z,3.67
2023-03-05T00:25:42.362Z,3.74
2023-03-05T00:26:42.359Z,3.76
2023-03-05T00:27:42.342Z,3.70
2023-03-05T00:28:42.347Z,3.76
2023-03-05T00:29:42.320Z,3.76
2023-03-05T00:30:42.312Z,3.80
2023-03-05T00:31:42.290Z,3.73
2023-03-05T00:32:42.298Z,3.76
2023-03-05T00:33:42.263Z,3.85
2023-03-05T00:34:42.258Z,3.84
2023-03-05T00:35:42.282Z,3.78
2023-03-05T00:36:42.226Z,3.78
2023-03-05T00:37:42.228Z,3.73
2023-03-05T00:38:42.202Z,3.67
2023-03-05T00:39:42.184Z,3.69
2023-03-05T00:40:42.272Z,3.70
2023-03-05T00:41:42.156Z,3.73
2023-03-05T00:42:42.186Z,3.74
2023-03-05T00:43:42.158Z,3.74
2023-03-05T00:44:42.147Z,3.69
2023-03-05T00:45:42.111Z,3.72
2023-03-05T00:46:42.170Z,3.70
2023-03-05T00:47:42.110Z,3.74
2023-03-05T00:48:42.101Z,3.66
2023-03-05T00:49:42.060Z,3.66
2023-03-05T00:50:42.050Z,3.72
2023-03-05T00:51:42.032Z,3.70
2023-03-05T00:52:42.020Z,3.72
2023-03-05T00:53:42.082Z,3.72
2023-03-05T00:54:42.004Z,3.73
2023-03-05T00:55:41.981Z,3.78
2023-03-05T00:56:41.976Z,3.76
2023-03-05T00:57:41.964Z,3.70
2023-03-05T00:58:41.980Z,3.73
2023-03-05T00:59:41.923Z,3.80
2023-03-05T01:00:41.921Z,3.82
2023-03-05T01:01:41.947Z,3.80
2023-03-05T01:02:41.908Z,3.84
2023-03-05T01:03:41.872Z,3.81
2023-03-05T01:04:41.864Z,3.85
2023-03-05T01:05:41.866Z,3.80
2023-03-05T01:06:41.869Z,3.74
2023-03-05T01:07:41.833Z,3.76
2023-03-05T01:08:41.805Z,3.74
2023-03-05T01:09:41.781Z,3.76
2023-03-05T01:10:41.777Z,3.78
2023-03-05T01:11:41.760Z,3.78
2023-03-05T01:12:41.769Z,3.78
2023-03-05T01:13:41.730Z,3.78
2023-03-05T01:14:41.736Z,3.73
2023-03-05T01:15:41.700Z,3.80
2023-03-05T01:16:41.698Z,3.73
2023-03-05T01:17:41.689Z,3.80
2023-03-05T01:18:41.673Z,3.80
2023-03-05T01:19:41.664Z,3.76
2023-03-05T01:20:41.640Z,3.73
2023-03-05T01:21:41.624Z,3.76
2023-03-05T01:22:41.632Z,3.78
2023-03-05T01:23:41.621Z,3.80
2023-03-05T01:24:41.605Z,3.81
2023-03-05T01:25:41.572Z,3.81
2023-03-05T01:26:41.554Z,3.82
2023-03-05T01:27:41.553Z,3.80
2023-03-05T01:28:41.551Z,3.78
2023-03-05T01:29:41.530Z,3.85
2023-03-05T01:30:41.498Z,3.87
2023-03-05T01:31:41.504Z,3.84
2023-03-05T01:32:41.580Z,3.88
2023-03-05T01:33:41.462Z,3.85
2023-03-05T01:34:41.469Z,3.84
2023-03-05T01:35:41.553Z,3.88
2023-03-05T01:36:41.427Z,3.90
2023-03-05T01:37:41.465Z,3.99
2023-03-05T01:38:41.434Z,3.99
2023-03-05T01:39:41.383Z,4.00
2023-03-05T01:40:41.369Z,4.03
2023-03-05T01:41:41.355Z,3.99
2023-03-05T01:42:41.350Z,3.98
2023-03-05T01:43:41.349Z,4.02
2023-03-05T01:44:41.334Z,3.91
2023-03-05T01:45:41.335Z,3.98
2023-03-05T01:46:41.290Z,4.00
2023-03-05T01:47:41.282Z,4.00
2023-03-05T01:48:41.270Z,4.02
2023-03-05T01:49:41.284Z,4.00
2023-03-05T01:50:41.249Z,4.02
2023-03-05T01:51:41.223Z,4.00
2023-03-05T01:52:41.217Z,3.99
2023-03-05T01:53:41.200Z,3.96
2023-03-05T01:54:41.202Z,3.87
2023-03-05T01:55:41.170Z,3.87
2023-03-05T01:56:41.159Z,3.88
2023-03-05T01:57:41.146Z,3.85
2023-03-05T01:58:41.150Z,3.85
2023-03-05T01:59:41.136Z,3.87
2023-03-05T02:00:41.152Z,3.94
2023-03-05T02:01:41.111Z,3.90
2023-03-05T02:02:41.087Z,3.92
2023-03-05T02:03:41.107Z,4.00
2023-03-05T02:04:41.076Z,3.96
2023-03-05T02:05:41.049Z,3.98
2023-03-05T02:06:41.033Z,3.99
2023-03-05T02:07:41.014Z,3.91
2023-03-05T02:08:41.007Z,3.94
2023-03-05T02:09:41.015Z,3.90
2023-03-05T02:10:40.985Z,3.90
2023-03-05T02:11:40.973Z,3.91
2023-03-05T02:12:40.955Z,3.94
2023-03-05T02:13:40.943Z,3.92
2023-03-05T02:14:40.929Z,3.94
2023-03-05T02:15:40.940Z,3.88
2023-03-05T02:16:40.925Z,3.87
2023-03-05T02:17:40.903Z,3.88
2023-03-05T02:18:40.882Z,3.85
2023-03-05T02:19:40.870Z,3.85
2023-03-05T02:20:40.873Z,3.92
2023-03-05T02:21:40.845Z,3.92
2023-03-05T02:22:40.832Z,3.85
2023-03-05T02:23:40.822Z,3.82
2023-03-05T02:24:40.809Z,3.78
2023-03-05T02:25:40.827Z,3.82
2023-03-05T02:26:40.773Z,3.87
2023-03-05T02:27:40.766Z,3.82
2023-03-05T02:28:40.756Z,3.80
2023-03-05T02:29:40.742Z,3.80
2023-03-05T02:30:40.744Z,3.88
2023-03-05T02:31:40.781Z,3.82
2023-03-05T02:32:40.722Z,3.78
2023-03-05T02:33:40.688Z,3.80
2023-03-05T02:34:40.682Z,3.80
2023-03-05T02:35:40.760Z,3.76
2023-03-05T02:36:40.645Z,3.67
2023-03-05T02:37:40.640Z,3.76
2023-03-05T02:38:40.640Z,3.81
2023-03-05T02:39:40.612Z,3.85
2023-03-05T02:40:40.612Z,3.81
2023-03-05T02:41:40.590Z,3.84
2023-03-05T02:42:40.572Z,3.87
2023-03-05T02:43:40.577Z,3.88
2023-03-05T02:44:40.566Z,3.90
2023-03-05T02:45:40.583Z,3.88
2023-03-05T02:46:40.515Z,3.90
2023-03-05T02:47:40.521Z,4.00
2023-03-05T02:48:40.515Z,3.96
2023-03-05T02:49:40.481Z,3.99
2023-03-05T02:50:40.471Z,3.92
2023-03-05T02:51:40.463Z,3.92
2023-03-05T02:52:40.460Z,3.92
2023-03-05T02:53:40.461Z,3.96
2023-03-05T02:54:40.420Z,3.98
2023-03-05T02:55:40.426Z,3.94
2023-03-05T02:56:40.395Z,3.92
2023-03-05T02:57:40.393Z,3.92
2023-03-05T02:58:40.363Z,3.88
2023-03-05T02:59:40.394Z,3.87
2023-03-05T03:00:40.359Z,3.92
2023-03-05T03:01:40.395Z,3.82
2023-03-05T03:02:40.321Z,3.88
2023-03-05T03:03:40.305Z,3.90
2023-03-05T03:04:40.304Z,3.94
2023-03-05T03:05:40.324Z,3.94
2023-03-05T03:06:40.260Z,3.92
2023-03-05T03:07:40.255Z,3.99
2023-03-05T03:08:40.231Z,3.90
2023-03-05T03:09:40.227Z,3.92
2023-03-05T03:10:40.211Z,3.90
2023-03-05T03:11:40.217Z,3.90
2023-03-05T03:12:40.190Z,3.88
2023-03-05T03:13:40.175Z,3.88
2023-03-05T03:14:40.155Z,3.84
2023-03-05T03:15:40.143Z,3.84
2023-03-05T03:16:40.221Z,3.84
2023-03-05T03:17:40.123Z,3.82
2023-03-05T03:18:40.123Z,3.76
2023-03-05T03:19:40.101Z,3.69
2023-03-05T03:20:40.086Z,3.70
2023-03-05T03:21:40.095Z,3.74
2023-03-05T03:22:40.054Z,3.78
2023-03-05T03:23:40.049Z,3.88
2023-03-05T03:24:40.043Z,3.90
2023-03-05T03:25:40.040Z,3.92
2023-03-05T03:26:40.039Z,3.76
2023-03-05T03:27:40.008Z,3.73
2023-03-05T03:28:40.004Z,3.72
2023-03-05T03:29:39.976Z,3.73
2023-03-05T03:30:40.002Z,3.73
2023-03-05T03:31:39.951Z,3.76
2023-03-05T03:32:39.936Z,3.72
2023-03-05T03:33:40.005Z,3.67
2023-03-05T03:34:39.903Z,3.64
2023-03-05T03:35:39.902Z,3.60
2023-03-05T03:36:39.880Z,3.69
2023-03-05T03:37:39.886Z,3.69
2023-03-05T03:38:39.858Z,3.62
2023-03-05T03:39:39.872Z,3.62
2023-03-05T03:40:39.834Z,3.63
2023-03-05T03:41:39.816Z,3.56
2023-03-05T03:42:39.805Z,3.60
2023-03-05T03:43:39.803Z,3.62
2023-03-05T03:44:39.807Z,3.64
2023-03-05T03:45:39.770Z,3.67
2023-03-05T03:46:39.776Z,3.64
2023-03-05T03:47:39.747Z,3.55
2023-03-05T03:48:39.728Z,3.59
2023-03-05T03:49:39.721Z,3.51
2023-03-05T03:50:39.697Z,3.52
2023-03-05T03:51:39.715Z,3.55
2023-03-05T03:52:39.678Z,3.63
2023-03-05T03:53:39.664Z,3.62
2023-03-05T03:54:39.659Z,3.63
2023-03-05T03:55:39.646Z,3.63
2023-03-05T03:56:39.639Z,3.56
2023-03-05T03:57:39.641Z,3.55
2023-03-05T03:58:39.648Z,3.51
2023-03-05T03:59:39.629Z,3.46
2023-03-05T04:00:39.591Z,3.44
2023-03-05T04:01:39.608Z,3.42
2023-03-05T04:02:39.599Z,3.42
2023-03-05T04:03:39.577Z,3.37
2023-03-05T04:04:39.639Z,3.29
2023-03-05T04:05:39.529Z,3.25
2023-03-05T04:06:39.523Z,3.26
2023-03-05T04:07:39.484Z,3.22
2023-03-05T04:08:39.469Z,3.20
2023-03-05T04:09:39.458Z,3.29
2023-03-05T04:10:39.446Z,3.30
2023-03-05T04:11:39.440Z,3.30
2023-03-05T04:12:39.440Z,3.23
2023-03-05T04:13:39.402Z,3.32
2023-03-05T04:14:39.395Z,3.27
2023-03-05T04:15:39.397Z,3.23
2023-03-05T04:16:39.365Z,3.23
2023-03-05T04:17:39.386Z,3.20
2023-03-05T04:18:39.348Z,3.27
2023-03-05T04:19:39.338Z,3.15
2023-03-05T04:20:39.313Z,3.20
2023-03-05T04:21:39.309Z,3.09
2023-03-05T04:22:39.347Z,3.09
2023-03-05T04:23:39.285Z,3.11
2023-03-05T04:24:39.287Z,3.11
2023-03-05T04:25:39.258Z,3.15
2023-03-05T04:26:39.240Z,3.08
2023-03-05T04:27:39.245Z,3.08
2023-03-05T04:28:39.219Z,3.08
2023-03-05T04:29:39.205Z,3.02
2023-03-05T04:30:39.185Z,3.11
2023-03-05T04:31:39.172Z,3.08
2023-03-05T04:32:39.233Z,3.07
2023-03-05T04:33:39.151Z,3.07
2023-03-05T04:34:39.131Z,3.02
2023-03-05T04:35:39.149Z,2.97
2023-03-05T04:36:39.103Z,2.90
2023-03-05T04:37:39.120Z,2.94
2023-03-05T04:38:39.096Z,2.96
2023-03-05T04:39:39.068Z,2.93
2023-03-05T04:40:39.055Z,2.91
2023-03-05T04:41:39.046Z,2.94
2023-03-05T04:42:39.041Z,2.90
2023-03-05T04:43:39.020Z,2.87
2023-03-05T04:44:39.000Z,2.90
2023-03-05T04:45:38.990Z,2.89
2023-03-05T04:46:39.011Z,2.86
2023-03-05T04:47:38.984Z,2.90
2023-03-05T04:48:38.946Z,2.90
2023-03-05T04:49:38.935Z,2.93
2023-03-05T04:50:38.925Z,2.86
2023-03-05T04:51:38.914Z,2.86
2023-03-05T04:52:38.922Z,2.82
2023-03-05T04:53:38.879Z,2.86
2023-03-05T04:54:38.873Z,2.86
2023-03-05T04:55:38.861Z,2.87
2023-03-05T04:56:38.856Z,2.84
2023-03-05T04:57:38.853Z,2.87
2023-03-05T04:58:38.818Z,2.87
2023-03-05T04:59:38.831Z,2.89
2023-03-05T05:00:38.802Z,2.91
2023-03-05T05:01:38.866Z,2.93
2023-03-05T05:02:38.789Z,2.94
2023-03-05T05:03:38.763Z,2.97
2023-03-05T05:04:38.763Z,2.96
2023-03-05T05:05:38.729Z,2.96
2023-03-05T05:06:38.723Z,2.93
2023-03-05T05:07:38.708Z,2.93
2023-03-05T05:08:38.690Z,2.90
2023-03-05T05:09:38.700Z,2.90
2023-03-05T05:10:38.666Z,2.99
2023-03-05T05:11:38.672Z,2.94
2023-03-05T05:12:38.661Z,2.94
2023-03-05T05:13:38.633Z,2.93
2023-03-05T05:14:38.632Z,2.99
2023-03-05T05:15:38.608Z,3.04
2023-03-05T05:16:38.591Z,3.08
2023-03-05T05:17:38.604Z,3.02
2023-03-05T05:18:38.570Z,3.04
2023-03-05T05:19:38.595Z,3.04
2023-03-05T05:20:38.547Z,2.94
2023-03-05T05:21:38.540Z,2.96
2023-03-05T05:22:38.529Z,3.08
2023-03-05T05:23:38.508Z,3.11
2023-03-05T05:24:38.488Z,3.14
2023-03-05T05:25:38.477Z,3.20
2023-03-05T05:26:38.460Z,3.15
2023-03-05T05:27:38.472Z,3.15
2023-03-05T05:28:38.441Z,3.07
2023-03-05T05:29:38.444Z,2.99
2023-03-05T05:30:38.416Z,3.00
2023-03-05T05:31:38.415Z,3.08
2023-03-05T05:32:39.506Z,3.14
2023-03-05T05:33:38.383Z,3.12
2023-03-05T05:34:38.378Z,3.15
2023-03-05T05:35:38.441Z,3.15
2023-03-05T05:36:38.333Z,3.05
2023-03-05T05:37:38.331Z,3.00
2023-03-05T05:38:38.316Z,3.00
2023-03-05T05:39:38.269Z,3.08
2023-03-05T05:40:38.230Z,3.11
2023-03-05T05:41:38.226Z,3.08
2023-03-05T05:42:38.209Z,3.09
2023-03-05T05:43:44.193Z,3.09
2023-03-05T05:44:38.198Z,3.12
2023-03-05T05:45:38.384Z,3.05
2023-03-05T05:46:38.269Z,2.99
2023-03-05T05:47:38.150Z,2.96
2023-03-05T05:48:38.129Z,2.97
2023-03-05T05:49:38.145Z,3.04
2023-03-05T05:50:38.119Z,3.05
2023-03-05T05:51:38.098Z,3.00
2023-03-05T05:52:38.091Z,3.02
2023-03-05T05:53:38.085Z,2.99
2023-03-05T05:54:38.076Z,3.07
2023-03-05T05:55:38.052Z,2.99
2023-03-05T05:56:38.030Z,3.04
2023-03-05T05:57:38.073Z,2.97
2023-03-05T05:58:38.003Z,2.97
2023-03-05T05:59:37.992Z,2.94
2023-03-05T06:00:37.985Z,2.99
2023-03-05T06:01:38.008Z,2.97
2023-03-05T06:02:38.115Z,3.08
2023-03-05T06:03:37.951Z,3.09
2023-03-05T06:04:37.937Z,3.07
2023-03-05T06:05:37.937Z,3.12
2023-03-05T06:06:37.905Z,3.04
2023-03-05T06:07:37.940Z,3.04
2023-03-05T06:08:37.880Z,2.99
2023-03-05T06:09:37.886Z,2.99
2023-03-05T06:10:37.842Z,3.04
2023-03-05T06:11:37.839Z,3.05
2023-03-05T06:12:37.855Z,3.09
2023-03-05T06:13:37.823Z,3.12
2023-03-05T06:14:37.809Z,3.15
2023-03-05T06:15:37.793Z,3.17
2023-03-05T06:16:37.851Z,3.17
2023-03-05T06:17:37.774Z,3.14
2023-03-05T06:18:37.744Z,3.09
2023-03-05T06:19:37.763Z,3.09
2023-03-05T06:20:37.721Z,3.07
2023-03-05T06:21:37.714Z,3.05
2023-03-05T06:22:37.704Z,3.04
2023-03-05T06:23:37.703Z,2.96
2023-03-05T06:24:37.725Z,3.00
2023-03-05T06:25:37.666Z,3.04
2023-03-05T06:26:37.651Z,3.04
2023-03-05T06:27:37.635Z,3.00
2023-03-05T06:28:37.625Z,2.91
2023-03-05T06:29:37.648Z,3.04
2023-03-05T06:30:37.680Z,3.07
2023-03-05T06:31:37.588Z,3.09
2023-03-05T06:32:37.633Z,3.11
2023-03-05T06:33:37.592Z,3.12
2023-03-05T06:34:37.573Z,3.11
2023-03-05T06:35:37.590Z,3.18
2023-03-05T06:36:37.549Z,3.20
2023-03-05T06:37:37.510Z,3.25
2023-03-05T06:38:37.526Z,3.26
2023-03-05T06:39:37.481Z,3.17
2023-03-05T06:40:37.470Z,3.14
2023-03-05T06:41:37.450Z,3.17
2023-03-05T06:42:37.490Z,3.18
2023-03-05T06:43:37.450Z,3.17
2023-03-05T06:44:37.455Z,3.14
2023-03-05T06:45:37.451Z,3.18
2023-03-05T06:46:37.406Z,3.20
2023-03-05T06:47:37.384Z,3.30
2023-03-05T06:48:37.379Z,3.32
2023-03-05T06:49:37.369Z,3.37
2023-03-05T06:50:37.340Z,3.41
2023-03-05T06:51:37.324Z,3.44
2023-03-05T06:52:37.320Z,3.41
2023-03-05T06:53:37.317Z,3.32
2023-03-05T06:54:37.301Z,3.32
2023-03-05T06:55:37.537Z,3.36
2023-03-05T06:56:37.285Z,3.32
2023-03-05T06:57:37.250Z,3.26
2023-03-05T06:58:37.256Z,3.32
2023-03-05T06:59:37.251Z,3.30
2023-03-05T07:00:37.212Z,3.36
2023-03-05T07:01:37.325Z,3.35
2023-03-05T07:02:37.210Z,3.41
2023-03-05T07:03:37.188Z,3.48
2023-03-05T07:04:37.178Z,3.54
2023-03-05T07:05:37.150Z,3.55
2023-03-05T07:06:37.140Z,3.55
2023-03-05T07:07:37.132Z,3.64
2023-03-05T07:08:37.128Z,3.63
2023-03-05T07:09:37.126Z,3.54
2023-03-05T07:10:37.081Z,3.42
2023-03-05T07:11:37.078Z,3.45
2023-03-05T07:12:37.084Z,3.46
2023-03-05T07:13:37.060Z,3.37
2023-03-05T07:14:37.038Z,3.35
2023-03-05T07:15:37.153Z,3.36
2023-03-05T07:16:37.064Z,3.42
2023-03-05T07:17:36.994Z,3.49
2023-03-05T07:18:36.978Z,3.52
2023-03-05T07:19:36.959Z,3.48
2023-03-05T07:20:36.987Z,3.48
2023-03-05T07:21:39.569Z,3.49
2023-03-05T07:22:36.921Z,3.52
2023-03-05T07:23:36.929Z,3.46
2023-03-05T07:24:36.916Z,3.42
2023-03-05T07:25:36.887Z,3.44
2023-03-05T07:26:36.881Z,3.49
2023-03-05T07:27:36.883Z,3.59
2023-03-05T07:28:36.851Z,3.66
2023-03-05T07:29:36.868Z,3.66
2023-03-05T07:30:36.901Z,3.60
2023-03-05T07:31:36.944Z,3.59
2023-03-05T07:32:36.874Z,3.67
2023-03-05T07:33:36.772Z,3.66
2023-03-05T07:34:36.774Z,3.69
2023-03-05T07:35:36.978Z,3.78
2023-03-05T07:36:36.742Z,3.81
2023-03-05T07:37:36.729Z,3.78
2023-03-05T07:38:36.740Z,3.80
2023-03-05T07:39:36.720Z,3.82
2023-03-05T07:40:36.708Z,3.74
2023-03-05T07:41:36.675Z,3.74
2023-03-05T07:42:36.719Z,3.80
2023-03-05T07:43:36.678Z,3.69
2023-03-05T07:44:36.631Z,3.70
2023-03-05T07:45:36.677Z,3.72
2023-03-05T07:46:36.696Z,3.82
2023-03-05T07:47:36.630Z,3.87
2023-03-05T07:48:36.612Z,3.87
2023-03-05T07:49:36.605Z,3.91
2023-03-05T07:50:36.708Z,3.91
2023-03-05T07:51:36.564Z,4.00
2023-03-05T07:52:36.540Z,4.06
2023-03-05T07:53:36.525Z,4.05
2023-03-05T07:54:36.514Z,4.08
2023-03-05T07:55:36.535Z,4.12
2023-03-05T07:56:36.536Z,4.10
2023-03-05T07:57:36.478Z,4.13
2023-03-05T07:58:36.478Z,4.27
2023-03-05T07:59:36.447Z,4.34
2023-03-05T08:00:36.449Z,4.43
2023-03-05T08:01:36.431Z,4.51
2023-03-05T08:02:36.494Z,4.46
2023-03-05T08:03:36.413Z,4.36
2023-03-05T08:04:36.383Z,4.38
2023-03-05T08:05:36.387Z,4.39
2023-03-05T08:06:36.365Z,4.42
2023-03-05T08:07:36.358Z,4.51
2023-03-05T08:08:36.339Z,4.56
2023-03-05T08:09:36.315Z,4.54
2023-03-05T08:10:36.328Z,4.57
2023-03-05T08:11:36.296Z,4.60
2023-03-05T08:12:36.292Z,4.61
2023-03-05T08:13:36.268Z,4.45
2023-03-05T08:14:36.266Z,4.48
2023-03-05T08:15:36.315Z,4.49
2023-03-05T08:16:36.237Z,4.56
2023-03-05T08:17:36.214Z,4.64
2023-03-05T08:18:36.225Z,4.74
2023-03-05T08:19:36.197Z,4.82
2023-03-05T08:20:36.192Z,4.88
2023-03-05T08:21:36.170Z,4.89
2023-03-05T08:22:36.159Z,4.79
2023-03-05T08:23:36.162Z,4.79
2023-03-05T08:24:36.138Z,4.86
2023-03-05T08:25:36.116Z,4.96
2023-03-05T08:26:36.112Z,4.86
2023-03-05T08:27:36.088Z,4.77
2023-03-05T08:28:36.112Z,4.75
2023-03-05T08:29:36.074Z,4.77
2023-03-05T08:30:36.053Z,4.75
2023-03-05T08:31:36.147Z,4.72
2023-03-05T08:32:36.120Z,4.69
2023-03-05T08:33:36.024Z,4.66
2023-03-05T08:34:36.015Z,4.60
2023-03-05T08:35:36.012Z,4.64
2023-03-05T08:36:36.009Z,4.63
2023-03-05T08:37:34.956Z,4.69
2023-03-05T08:38:35.971Z,4.83
2023-03-05T08:39:35.948Z,4.89
2023-03-05T08:40:35.928Z,4.94
2023-03-05T08:41:35.912Z,4.97
2023-03-05T08:42:35.916Z,5.00
2023-03-05T08:43:35.880Z,5.00
2023-03-05T08:44:35.907Z,4.89
2023-03-05T08:45:35.859Z,4.91
2023-03-05T08:46:35.929Z,5.01
2023-03-05T08:47:35.832Z,5.12
2023-03-05T08:48:35.868Z,5.07
2023-03-05T08:49:35.886Z,5.04
2023-03-05T08:50:37.528Z,5.01
2023-03-05T08:51:35.809Z,4.91
2023-03-05T08:52:35.778Z,4.97
2023-03-05T08:53:35.758Z,5.00
2023-03-05T08:54:35.795Z,5.00
2023-03-05T08:55:35.781Z,5.12
2023-03-05T08:56:35.730Z,5.04
2023-03-05T08:57:35.719Z,5.00
2023-03-05T08:58:35.719Z,5.06
2023-03-05T08:59:35.705Z,5.14
2023-03-05T09:00:35.849Z,5.21
2023-03-05T09:01:35.695Z,5.21
2023-03-05T09:02:35.674Z,5.15
2023-03-05T09:03:35.636Z,5.09
2023-03-05T09:04:35.648Z,5.00
2023-03-05T09:05:37.215Z,5.04
2023-03-05T09:06:35.592Z,5.09
2023-03-05T09:07:35.577Z,5.14
2023-03-05T09:08:35.581Z,5.16
2023-03-05T09:09:35.568Z,4.96
2023-03-05T09:10:35.546Z,4.96
2023-03-05T09:11:35.536Z,4.74
2023-03-05T09:12:35.516Z,4.93
2023-03-05T09:13:35.536Z,5.07
2023-03-05T09:14:35.633Z,5.04
2023-03-05T09:15:35.505Z,4.97
2023-03-05T09:16:35.682Z,5.00
2023-03-05T09:17:35.455Z,4.96
2023-03-05T09:18:35.462Z,5.04
2023-03-05T09:19:35.440Z,5.15
2023-03-05T09:20:35.466Z,5.24
2023-03-05T09:21:35.422Z,5.33
2023-03-05T09:22:35.393Z,5.40
2023-03-05T09:23:35.376Z,5.30
2023-03-05T09:24:35.364Z,5.15
2023-03-05T09:25:35.381Z,5.11
2023-03-05T09:26:35.355Z,5.15
2023-03-05T09:27:35.350Z,5.11
2023-03-05T09:28:35.351Z,5.32
2023-03-05T09:29:35.817Z,5.25
2023-03-05T09:30:35.292Z,5.21
2023-03-05T09:31:35.335Z,5.30
2023-03-05T09:32:35.497Z,5.39
2023-03-05T09:33:35.246Z,5.43
2023-03-05T09:34:35.272Z,5.33
2023-03-05T09:35:35.281Z,5.24
2023-03-05T09:36:35.218Z,5.33
2023-03-05T09:37:35.208Z,5.37
2023-03-05T09:38:35.225Z,5.21
2023-03-05T09:39:35.197Z,5.40
2023-03-05T09:40:35.476Z,5.59
2023-03-05T09:41:35.138Z,5.65
2023-03-05T09:42:35.187Z,5.32
2023-03-05T09:43:35.169Z,5.33
2023-03-05T09:44:35.180Z,5.36
2023-03-05T09:45:35.155Z,5.43
2023-03-05T09:46:35.114Z,5.43
2023-03-05T09:47:35.067Z,5.39
2023-03-05T09:48:35.081Z,5.41
2023-03-05T09:49:35.039Z,5.47
2023-03-05T09:50:35.094Z,5.54
2023-03-05T09:51:35.180Z,5.57
2023-03-05T09:52:35.008Z,5.58
2023-03-05T09:53:35.011Z,5.44
2023-03-05T09:54:34.984Z,5.58
2023-03-05T09:55:36.305Z,5.59
2023-03-05T09:56:34.989Z,5.57
2023-03-05T09:57:34.963Z,5.44
2023-03-05T09:58:35.040Z,5.41
2023-03-05T09:59:34.930Z,5.39
2023-03-05T10:00:34.917Z,5.32
2023-03-05T10:01:35.038Z,5.30
2023-03-05T10:02:34.895Z,4.98
2023-03-05T10:03:34.902Z,4.78
2023-03-05T10:04:34.886Z,4.94
2023-03-05T10:05:34.836Z,5.00
2023-03-05T10:06:34.937Z,5.09
2023-03-05T10:07:34.818Z,5.04
2023-03-05T10:08:34.842Z,5.11
2023-03-05T10:09:36.858Z,5.12
2023-03-05T10:10:34.934Z,5.16
2023-03-05T10:11:34.754Z,5.18
2023-03-05T10:12:34.757Z,5.30
2023-03-05T10:13:34.744Z,5.06
2023-03-05T10:14:34.760Z,4.85
2023-03-05T10:15:34.706Z,4.91
2023-03-05T10:16:34.777Z,4.85
2023-03-05T10:17:34.757Z,4.86
2023-03-05T10:18:34.688Z,4.83
2023-03-05T10:19:34.667Z,4.74
2023-03-05T10:20:34.678Z,4.75
2023-03-05T10:21:34.649Z,4.64
2023-03-05T10:22:34.673Z,4.67
2023-03-05T10:23:34.618Z,4.77
2023-03-05T10:24:34.609Z,4.77
2023-03-05T10:25:34.586Z,4.78
2023-03-05T10:26:34.593Z,4.88
2023-03-05T10:27:34.690Z,4.94
2023-03-05T10:28:34.564Z,4.83
2023-03-05T10:29:34.547Z,4.89
2023-03-05T10:30:34.526Z,5.03
2023-03-05T10:31:34.574Z,5.11
2023-03-05T10:32:34.575Z,5.07
2023-03-05T10:33:34.477Z,5.15
2023-03-05T10:34:34.484Z,5.27
2023-03-05T10:35:34.474Z,5.25
2023-03-05T10:36:34.627Z,5.07
2023-03-05T10:37:34.425Z,5.16
2023-03-05T10:38:34.459Z,5.33
2023-03-05T10:39:34.406Z,5.34
2023-03-05T10:40:34.435Z,5.32
2023-03-05T10:41:34.447Z,5.21
2023-03-05T10:42:34.380Z,5.29
2023-03-05T10:43:34.373Z,5.37
2023-03-05T10:44:34.461Z,5.50
2023-03-05T10:45:34.490Z,5.58
2023-03-05T10:46:34.355Z,5.47
2023-03-05T10:47:34.306Z,5.40
2023-03-05T10:48:34.404Z,5.43
2023-03-05T10:49:34.283Z,5.29
2023-03-05T10:50:34.294Z,5.16
2023-03-05T10:51:34.297Z,5.21
2023-03-05T10:52:34.238Z,5.36
2023-03-05T10:53:34.240Z,5.24
2023-03-05T10:54:34.212Z,5.19
2023-03-05T10:55:34.224Z,5.18
2023-03-05T10:56:34.192Z,5.12
2023-03-05T10:57:34.182Z,5.24
2023-03-05T10:58:34.155Z,5.24
2023-03-05T10:59:34.188Z,5.30
2023-03-05T11:00:34.187Z,5.14
2023-03-05T11:01:34.211Z,5.24
2023-03-05T11:02:34.194Z,5.22
2023-03-05T11:03:34.095Z,5.27
2023-03-05T11:04:34.081Z,5.27
2023-03-05T11:05:34.081Z,5.15
2023-03-05T11:06:34.065Z,5.22
2023-03-05T11:07:34.042Z,5.27
2023-03-05T11:08:34.039Z,5.29
2023-03-05T11:09:34.009Z,5.33
2023-03-05T11:10:34.010Z,5.40
2023-03-05T11:11:34.010Z,5.34
2023-03-05T11:12:33.976Z,5.43
2023-03-05T11:13:33.968Z,5.36
2023-03-05T11:14:33.960Z,5.27
2023-03-05T11:15:34.488Z,5.29
2023-03-05T11:16:34.125Z,5.39
2023-03-05T11:17:34.073Z,5.47
2023-03-05T11:18:34.248Z,5.48
2023-03-05T11:19:33.881Z,5.33
2023-03-05T11:20:33.867Z,5.32
2023-03-05T11:21:33.911Z,5.25
2023-03-05T11:22:33.863Z,5.22
2023-03-05T11:23:34.019Z,5.19
2023-03-05T11:24:33.871Z,5.19
2023-03-05T11:25:33.810Z,5.16
2023-03-05T11:26:33.893Z,5.19
2023-03-05T11:27:33.803Z,5.18
2023-03-05T11:28:34.147Z,5.12
2023-03-05T11:29:33.898Z,5.19
2023-03-05T11:30:33.761Z,5.30
2023-03-05T11:31:33.753Z,5.43
2023-03-05T11:32:33.914Z,5.33
2023-03-05T11:33:33.841Z,5.44
2023-03-05T11:34:34.105Z,5.41
2023-03-05T11:35:34.085Z,5.44
2023-03-05T11:36:34.011Z,5.52
2023-03-05T11:37:34.441Z,5.40
2023-03-05T11:38:35.038Z,5.50
2023-03-05T11:39:33.756Z,5.62
2023-03-05T11:40:33.809Z,5.51
2023-03-05T11:41:33.890Z,5.58
2023-03-05T11:42:33.708Z,5.57
2023-03-05T11:43:33.688Z,5.72
2023-03-05T11:44:33.572Z,5.47
2023-03-05T11:45:33.550Z,5.66
2023-03-05T11:46:33.673Z,5.82
2023-03-05T11:47:33.606Z,5.67
2023-03-05T11:49:25.977Z,5.93
2023-03-05T11:50:26.956Z,5.82
2023-03-05T11:51:26.927Z,5.70
2023-03-05T11:52:26.927Z,5.69
2023-03-05T11:53:26.918Z,5.66
2023-03-05T11:54:26.910Z,5.93
2023-03-05T11:55:26.886Z,6.08
2023-03-05T11:56:26.871Z,6.28
2023-03-05T11:57:26.887Z,6.38
2023-03-05T11:58:26.879Z,6.40
2023-03-05T11:59:26.837Z,6.49
2023-03-05T12:00:26.824Z,6.37
2023-03-05T12:01:26.803Z,6.49
2023-03-05T12:02:26.833Z,6.46
2023-03-05T12:03:26.820Z,6.57
2023-03-05T12:04:26.781Z,6.31
2023-03-05T12:05:26.754Z,6.19
2023-03-05T12:06:26.754Z,6.16
2023-03-05T12:07:28.302Z,6.12
2023-03-05T12:08:26.743Z,6.30
2023-03-05T12:09:26.712Z,6.35
2023-03-05T12:10:26.697Z,5.93
2023-03-05T12:11:26.690Z,6.00
2023-03-05T12:12:26.689Z,6.16
2023-03-05T12:13:26.656Z,6.30
2023-03-05T12:14:26.647Z,6.11
2023-03-05T12:15:26.633Z,6.15
2023-03-05T12:16:26.638Z,6.28
2023-03-05T12:17:26.634Z,6.34
2023-03-05T12:18:26.598Z,6.25
2023-03-05T12:19:26.599Z,6.11
2023-03-05T12:20:26.579Z,5.87
2023-03-05T12:21:26.557Z,5.69
2023-03-05T12:22:26.546Z,5.77
2023-03-05T12:23:26.536Z,5.76
2023-03-05T12:24:28.389Z,5.80
2023-03-05T12:25:26.501Z,5.82
2023-03-05T12:26:26.499Z,5.94
2023-03-05T12:27:26.477Z,6.11
2023-03-05T12:28:26.470Z,6.27
2023-03-05T12:29:26.472Z,6.12
2023-03-05T12:30:26.446Z,6.25
2023-03-05T12:31:26.480Z,6.21
2023-03-05T12:32:26.492Z,6.08
2023-03-05T12:33:26.435Z,6.31
2023-03-05T12:34:26.413Z,6.31
2023-03-05T12:35:26.412Z,6.43
2023-03-05T12:36:26.363Z,6.49
2023-03-05T12:37:26.345Z,6.11
2023-03-05T12:38:27.256Z,6.03
2023-03-05T12:39:26.322Z,5.85
2023-03-05T12:40:26.321Z,5.88
2023-03-05T12:41:28.064Z,5.93
2023-03-05T12:42:26.298Z,5.84
2023-03-05T12:43:26.314Z,5.87
2023-03-05T12:44:26.306Z,5.79
2023-03-05T12:45:26.248Z,5.54
2023-03-05T12:46:26.231Z,5.67
2023-03-05T12:47:26.231Z,5.73
2023-03-05T12:48:26.251Z,5.82
2023-03-05T12:49:26.190Z,5.91
2023-03-05T12:50:26.191Z,5.72
2023-03-05T12:51:26.173Z,5.65
2023-03-05T12:52:26.161Z,5.67
2023-03-05T12:53:26.181Z,5.70
2023-03-05T12:54:26.148Z,5.62
2023-03-05T12:55:26.156Z,5.54
2023-03-05T12:56:26.112Z,5.48
2023-03-05T12:57:26.091Z,5.40
2023-03-05T12:58:26.091Z,5.36
2023-03-05T12:59:26.068Z,5.24
2023-03-05T13:00:26.094Z,5.09
2023-03-05T13:01:26.040Z,5.09
2023-03-05T13:02:26.026Z,5.06
2023-03-05T13:03:26.040Z,4.88
2023-03-05T13:04:26.004Z,4.82
2023-03-05T13:05:26.006Z,4.88
2023-03-05T13:06:25.976Z,4.91
2023-03-05T13:07:25.953Z,4.83
2023-03-05T13:08:25.967Z,4.78
2023-03-05T13:09:25.934Z,4.86
2023-03-05T13:10:25.927Z,4.82
2023-03-05T13:11:25.903Z,4.74
2023-03-05T13:12:25.962Z,4.75
2023-03-05T13:13:25.895Z,4.85
2023-03-05T13:14:25.874Z,4.85
2023-03-05T13:15:25.848Z,4.79
2023-03-05T13:16:25.873Z,4.86
2023-03-05T13:17:25.832Z,4.85
2023-03-05T13:18:25.830Z,5.01
2023-03-05T13:19:25.798Z,4.94